sensor_id;sensor_type;location;lat;lon;timestamp;temperature;humidity
5705;DHT22;2877;48.238;11.160;2023-04-01T00:00:47;7.10;99.90
5705;DHT22;2877;48.238;11.160;2023-04-01T00:03:13;7.10;99.90
5705;DHT22;2877;48.238;11.160;2023-04-01T00:05:39;7.10;99.90
5705;DHT22;2877;48.238;11.160;2023-04-01T00:08:04;7.10;99.90
5705;DHT22;2877;48.238;11.160;2023-04-01T00:10:30;7.10;99.90
5705;DHT22;2877;48.238;11.160;2023-04-01T00:12:56;7.10;99.90
5705;DHT22;2877;48.238;11.160;2023-04-01T00:15:21;7.10;99.90
5705;DHT22;2877;48.238;11.160;2023-04-01T00:17:47;7.00;99.90
5705;DHT22;2877;48.238;11.160;2023-04-01T00:20:13;7.00;99.90
5705;DHT22;2877;48.238;11.160;2023-04-01T00:22:39;7.00;99.90
5705;DHT22;2877;48.238;11.160;2023-04-01T00:25:05;7.00;99.90
5705;DHT22;2877;48.238;11.160;2023-04-01T00:27:31;7.00;99.90
5705;DHT22;2877;48.238;11.160;2023-04-01T00:29:56;7.00;99.90
5705;DHT22;2877;48.238;11.160;2023-04-01T00:32:22;7.10;99.90
5705;DHT22;2877;48.238;11.160;2023-04-01T00:34:50;7.10;99.90
5705;DHT22;2877;48.238;11.160;2023-04-01T00:37:17;7.10;99.90
5705;DHT22;2877;48.238;11.160;2023-04-01T00:39:42;7.10;99.90
5705;DHT22;2877;48.238;11.160;2023-04-01T00:42:09;7.10;99.90
5705;DHT22;2877;48.238;11.160;2023-04-01T00:44:37;7.10;99.90
5705;DHT22;2877;48.238;11.160;2023-04-01T00:47:03;7.10;99.90
5705;DHT22;2877;48.238;11.160;2023-04-01T00:49:36;7.10;99.90
5705;DHT22;2877;48.238;11.160;2023-04-01T00:52:04;7.10;99.90
5705;DHT22;2877;48.238;11.160;2023-04-01T00:54:32;7.10;99.90
5705;DHT22;2877;48.238;11.160;2023-04-01T00:57:02;7.10;99.90
5705;DHT22;2877;48.238;11.160;2023-04-01T00:59:39;7.10;99.90
5705;DHT22;2877;48.238;11.160;2023-04-01T01:02:08;7.10;99.90
5705;DHT22;2877;48.238;11.160;2023-04-01T01:04:35;7.20;99.90
5705;DHT22;2877;48.238;11.160;2023-04-01T01:09:56;7.20;99.90
5705;DHT22;2877;48.238;11.160;2023-04-01T01:21:27;7.00;99.90
5705;DHT22;2877;48.238;11.160;2023-04-01T01:35:31;7.10;99.90
5705;DHT22;2877;48.238;11.160;2023-04-01T01:38:01;7.00;99.90
5705;DHT22;2877;48.238;11.160;2023-04-01T01:40:29;7.00;99.90
5705;DHT22;2877;48.238;11.160;2023-04-01T01:42:59;7.00;99.90
5705;DHT22;2877;48.238;11.160;2023-04-01T01:45:27;7.10;99.90
5705;DHT22;2877;48.238;11.160;2023-04-01T01:47:55;7.00;99.90
5705;DHT22;2877;48.238;11.160;2023-04-01T01:50:21;7.00;99.90
5705;DHT22;2877;48.238;11.160;2023-04-01T01:52:47;7.10;99.90
5705;DHT22;2877;48.238;11.160;2023-04-01T01:55:40;7.00;99.90
5705;DHT22;2877;48.238;11.160;2023-04-01T01:58:14;7.00;99.90
5705;DHT22;2877;48.238;11.160;2023-04-01T02:00:44;7.00;99.90
5705;DHT22;2877;48.238;11.160;2023-04-01T02:03:12;7.00;99.90
5705;DHT22;2877;48.238;11.160;2023-04-01T02:05:39;7.00;99.90
5705;DHT22;2877;48.238;11.160;2023-04-01T02:08:30;7.00;99.90
5705;DHT22;2877;48.238;11.160;2023-04-01T02:11:03;7.00;99.90
5705;DHT22;2877;48.238;11.160;2023-04-01T02:16:05;6.90;99.90
5705;DHT22;2877;48.238;11.160;2023-04-01T02:18:34;6.90;99.90
5705;DHT22;2877;48.238;11.160;2023-04-01T02:21:03;6.90;99.90
5705;DHT22;2877;48.238;11.160;2023-04-01T02:23:31;6.90;99.90
5705;DHT22;2877;48.238;11.160;2023-04-01T02:25:58;6.80;99.90
5705;DHT22;2877;48.238;11.160;2023-04-01T02:28:24;6.80;99.90
5705;DHT22;2877;48.238;11.160;2023-04-01T02:30:51;6.80;99.90
5705;DHT22;2877;48.238;11.160;2023-04-01T02:33:17;6.70;99.90
5705;DHT22;2877;48.238;11.160;2023-04-01T02:35:44;6.70;99.90
5705;DHT22;2877;48.238;11.160;2023-04-01T02:38:09;6.70;99.90
5705;DHT22;2877;48.238;11.160;2023-04-01T02:40:49;6.60;99.90
5705;DHT22;2877;48.238;11.160;2023-04-01T02:43:15;6.60;99.90
5705;DHT22;2877;48.238;11.160;2023-04-01T02:45:42;6.50;99.90
5705;DHT22;2877;48.238;11.160;2023-04-01T02:48:07;6.50;99.90
5705;DHT22;2877;48.238;11.160;2023-04-01T02:50:33;6.50;99.90
5705;DHT22;2877;48.238;11.160;2023-04-01T02:53:00;6.50;99.90
5705;DHT22;2877;48.238;11.160;2023-04-01T02:55:26;6.50;99.90
5705;DHT22;2877;48.238;11.160;2023-04-01T02:57:51;6.50;99.90
5705;DHT22;2877;48.238;11.160;2023-04-01T03:00:17;6.60;99.90
5705;DHT22;2877;48.238;11.160;2023-04-01T03:02:42;6.50;99.90
5705;DHT22;2877;48.238;11.160;2023-04-01T03:05:09;6.40;99.90
5705;DHT22;2877;48.238;11.160;2023-04-01T03:07:35;6.40;99.90
5705;DHT22;2877;48.238;11.160;2023-04-01T03:10:01;6.40;99.90
5705;DHT22;2877;48.238;11.160;2023-04-01T03:12:26;6.30;99.90
5705;DHT22;2877;48.238;11.160;2023-04-01T03:14:52;6.30;99.90
5705;DHT22;2877;48.238;11.160;2023-04-01T03:17:17;6.30;99.90
5705;DHT22;2877;48.238;11.160;2023-04-01T03:19:43;6.20;99.90
5705;DHT22;2877;48.238;11.160;2023-04-01T03:22:10;6.20;99.90
5705;DHT22;2877;48.238;11.160;2023-04-01T03:24:36;6.10;99.90
5705;DHT22;2877;48.238;11.160;2023-04-01T03:27:02;6.10;99.90
5705;DHT22;2877;48.238;11.160;2023-04-01T03:29:27;6.00;99.90
5705;DHT22;2877;48.238;11.160;2023-04-01T03:31:53;6.00;99.90
5705;DHT22;2877;48.238;11.160;2023-04-01T03:34:18;6.00;99.90
5705;DHT22;2877;48.238;11.160;2023-04-01T03:36:44;6.10;99.90
5705;DHT22;2877;48.238;11.160;2023-04-01T03:39:09;6.10;99.90
5705;DHT22;2877;48.238;11.160;2023-04-01T03:41:36;6.20;99.90
5705;DHT22;2877;48.238;11.160;2023-04-01T03:44:02;6.20;99.90
5705;DHT22;2877;48.238;11.160;2023-04-01T03:46:28;6.20;99.90
5705;DHT22;2877;48.238;11.160;2023-04-01T03:48:53;6.20;99.90
5705;DHT22;2877;48.238;11.160;2023-04-01T03:51:19;6.20;99.90
5705;DHT22;2877;48.238;11.160;2023-04-01T03:53:45;6.10;99.90
5705;DHT22;2877;48.238;11.160;2023-04-01T03:56:11;6.20;99.90
5705;DHT22;2877;48.238;11.160;2023-04-01T03:58:37;6.20;99.90
5705;DHT22;2877;48.238;11.160;2023-04-01T04:01:16;6.20;99.90
5705;DHT22;2877;48.238;11.160;2023-04-01T04:03:42;6.20;99.90
5705;DHT22;2877;48.238;11.160;2023-04-01T04:06:13;6.30;99.90
5705;DHT22;2877;48.238;11.160;2023-04-01T04:08:38;6.30;99.90
5705;DHT22;2877;48.238;11.160;2023-04-01T04:11:04;6.30;99.90
5705;DHT22;2877;48.238;11.160;2023-04-01T04:13:30;6.30;99.90
5705;DHT22;2877;48.238;11.160;2023-04-01T04:15:55;6.30;99.90
5705;DHT22;2877;48.238;11.160;2023-04-01T04:18:21;6.30;99.90
5705;DHT22;2877;48.238;11.160;2023-04-01T04:20:46;6.30;99.90
5705;DHT22;2877;48.238;11.160;2023-04-01T04:23:15;6.30;99.90
5705;DHT22;2877;48.238;11.160;2023-04-01T04:25:41;6.30;99.90
5705;DHT22;2877;48.238;11.160;2023-04-01T04:28:06;6.40;99.90
5705;DHT22;2877;48.238;11.160;2023-04-01T04:30:32;6.40;99.90
5705;DHT22;2877;48.238;11.160;2023-04-01T04:32:57;6.50;99.90
5705;DHT22;2877;48.238;11.160;2023-04-01T04:35:23;6.50;99.90
5705;DHT22;2877;48.238;11.160;2023-04-01T04:37:48;6.50;99.90
5705;DHT22;2877;48.238;11.160;2023-04-01T04:40:14;6.50;99.90
5705;DHT22;2877;48.238;11.160;2023-04-01T04:42:39;6.50;99.90
5705;DHT22;2877;48.238;11.160;2023-04-01T04:45:06;6.50;99.90
5705;DHT22;2877;48.238;11.160;2023-04-01T04:47:31;6.60;99.90
5705;DHT22;2877;48.238;11.160;2023-04-01T04:49:57;6.60;99.90
5705;DHT22;2877;48.238;11.160;2023-04-01T04:52:22;6.70;99.90
5705;DHT22;2877;48.238;11.160;2023-04-01T04:54:48;6.70;99.90
5705;DHT22;2877;48.238;11.160;2023-04-01T04:57:13;6.80;99.90
5705;DHT22;2877;48.238;11.160;2023-04-01T04:59:39;6.80;99.90
5705;DHT22;2877;48.238;11.160;2023-04-01T05:02:05;6.80;99.90
5705;DHT22;2877;48.238;11.160;2023-04-01T05:04:34;6.90;99.90
5705;DHT22;2877;48.238;11.160;2023-04-01T05:07:00;6.90;99.90
5705;DHT22;2877;48.238;11.160;2023-04-01T05:09:26;6.90;99.90
5705;DHT22;2877;48.238;11.160;2023-04-01T05:11:51;6.90;99.90
5705;DHT22;2877;48.238;11.160;2023-04-01T05:14:17;6.90;99.90
5705;DHT22;2877;48.238;11.160;2023-04-01T05:16:43;6.90;99.90
5705;DHT22;2877;48.238;11.160;2023-04-01T05:19:08;7.00;99.90
5705;DHT22;2877;48.238;11.160;2023-04-01T05:21:34;7.00;99.90
5705;DHT22;2877;48.238;11.160;2023-04-01T05:23:59;6.90;99.90
5705;DHT22;2877;48.238;11.160;2023-04-01T05:26:25;6.90;99.90
5705;DHT22;2877;48.238;11.160;2023-04-01T05:28:50;6.90;99.90
5705;DHT22;2877;48.238;11.160;2023-04-01T05:31:16;6.90;99.90
5705;DHT22;2877;48.238;11.160;2023-04-01T05:33:41;6.80;99.90
5705;DHT22;2877;48.238;11.160;2023-04-01T05:36:14;6.80;99.90
5705;DHT22;2877;48.238;11.160;2023-04-01T05:38:40;6.80;99.90
5705;DHT22;2877;48.238;11.160;2023-04-01T05:41:05;6.80;99.90
5705;DHT22;2877;48.238;11.160;2023-04-01T05:43:32;6.80;99.90
5705;DHT22;2877;48.238;11.160;2023-04-01T05:46:00;6.80;99.90
5705;DHT22;2877;48.238;11.160;2023-04-01T05:48:26;6.80;99.90
5705;DHT22;2877;48.238;11.160;2023-04-01T05:50:51;6.80;99.90
5705;DHT22;2877;48.238;11.160;2023-04-01T05:53:17;6.80;99.90
5705;DHT22;2877;48.238;11.160;2023-04-01T05:55:42;6.80;99.90
5705;DHT22;2877;48.238;11.160;2023-04-01T05:58:08;6.80;99.90
5705;DHT22;2877;48.238;11.160;2023-04-01T06:00:33;6.90;99.90
5705;DHT22;2877;48.238;11.160;2023-04-01T06:02:59;6.90;99.90
5705;DHT22;2877;48.238;11.160;2023-04-01T06:05:28;7.00;99.90
5705;DHT22;2877;48.238;11.160;2023-04-01T06:08:00;7.00;99.90
5705;DHT22;2877;48.238;11.160;2023-04-01T06:13:21;7.10;99.90
5705;DHT22;2877;48.238;11.160;2023-04-01T06:16:04;7.20;99.90
5705;DHT22;2877;48.238;11.160;2023-04-01T06:18:46;7.40;99.90
5705;DHT22;2877;48.238;11.160;2023-04-01T06:26:41;7.60;99.90
5705;DHT22;2877;48.238;11.160;2023-04-01T06:34:50;7.70;99.90
5705;DHT22;2877;48.238;11.160;2023-04-01T06:37:45;7.70;99.90
5705;DHT22;2877;48.238;11.160;2023-04-01T06:42:56;7.80;99.90
5705;DHT22;2877;48.238;11.160;2023-04-01T06:51:28;8.10;99.90
5705;DHT22;2877;48.238;11.160;2023-04-01T06:54:18;8.10;99.90
5705;DHT22;2877;48.238;11.160;2023-04-01T06:56:49;8.20;99.90
5705;DHT22;2877;48.238;11.160;2023-04-01T06:59:18;8.20;99.90
5705;DHT22;2877;48.238;11.160;2023-04-01T07:01:54;8.20;99.90
5705;DHT22;2877;48.238;11.160;2023-04-01T07:04:25;8.20;99.90
5705;DHT22;2877;48.238;11.160;2023-04-01T07:09:39;8.30;99.90
5705;DHT22;2877;48.238;11.160;2023-04-01T07:12:12;8.40;99.90
5705;DHT22;2877;48.238;11.160;2023-04-01T07:14:41;8.30;99.90
5705;DHT22;2877;48.238;11.160;2023-04-01T07:17:20;8.30;99.90
5705;DHT22;2877;48.238;11.160;2023-04-01T07:24:53;8.50;99.90
5705;DHT22;2877;48.238;11.160;2023-04-01T07:27:19;8.70;99.90
5705;DHT22;2877;48.238;11.160;2023-04-01T07:29:45;8.90;99.90
5705;DHT22;2877;48.238;11.160;2023-04-01T07:32:34;8.90;99.90
5705;DHT22;2877;48.238;11.160;2023-04-01T07:38:24;9.00;99.90
5705;DHT22;2877;48.238;11.160;2023-04-01T07:43:59;8.90;99.90
5705;DHT22;2877;48.238;11.160;2023-04-01T07:49:29;8.80;99.90
5705;DHT22;2877;48.238;11.160;2023-04-01T08:08:06;9.20;99.90
5705;DHT22;2877;48.238;11.160;2023-04-01T08:10:44;9.40;99.90
5705;DHT22;2877;48.238;11.160;2023-04-01T08:19:02;10.00;99.90
5705;DHT22;2877;48.238;11.160;2023-04-01T08:21:39;10.00;99.90
5705;DHT22;2877;48.238;11.160;2023-04-01T08:24:25;10.00;99.90
5705;DHT22;2877;48.238;11.160;2023-04-01T08:26:57;9.80;99.90
5705;DHT22;2877;48.238;11.160;2023-04-01T08:29:41;10.00;99.90
5705;DHT22;2877;48.238;11.160;2023-04-01T08:32:12;9.80;99.90
5705;DHT22;2877;48.238;11.160;2023-04-01T08:34:40;9.70;99.90
5705;DHT22;2877;48.238;11.160;2023-04-01T08:37:17;9.90;99.90
5705;DHT22;2877;48.238;11.160;2023-04-01T08:39:53;9.90;99.90
5705;DHT22;2877;48.238;11.160;2023-04-01T08:42:42;10.00;99.90
5705;DHT22;2877;48.238;11.160;2023-04-01T08:57:10;10.20;99.90
5705;DHT22;2877;48.238;11.160;2023-04-01T08:59:57;10.40;99.90
5705;DHT22;2877;48.238;11.160;2023-04-01T09:08:29;10.50;99.90
5705;DHT22;2877;48.238;11.160;2023-04-01T09:11:03;10.40;99.90
5705;DHT22;2877;48.238;11.160;2023-04-01T09:44:37;10.90;99.90
5705;DHT22;2877;48.238;11.160;2023-04-01T10:01:19;11.10;99.90
5705;DHT22;2877;48.238;11.160;2023-04-01T10:07:32;11.10;99.90
5705;DHT22;2877;48.238;11.160;2023-04-01T10:09:47;11.10;99.90
5705;DHT22;2877;48.238;11.160;2023-04-01T10:18:06;10.50;99.90
5705;DHT22;2877;48.238;11.160;2023-04-01T10:29:25;10.30;99.90
5705;DHT22;2877;48.238;11.160;2023-04-01T10:32:21;10.30;99.90
5705;DHT22;2877;48.238;11.160;2023-04-01T10:44:03;10.00;99.90
5705;DHT22;2877;48.238;11.160;2023-04-01T10:55:52;9.70;99.90
5705;DHT22;2877;48.238;11.160;2023-04-01T11:12:39;8.80;99.90
5705;DHT22;2877;48.238;11.160;2023-04-01T11:15:26;8.70;99.90
5705;DHT22;2877;48.238;11.160;2023-04-01T11:21:03;8.50;99.90
5705;DHT22;2877;48.238;11.160;2023-04-01T11:26:55;8.20;99.90
5705;DHT22;2877;48.238;11.160;2023-04-01T11:35:50;7.90;99.90
5705;DHT22;2877;48.238;11.160;2023-04-01T11:41:38;7.80;99.90
5705;DHT22;2877;48.238;11.160;2023-04-01T11:44:20;7.80;99.90
5705;DHT22;2877;48.238;11.160;2023-04-01T11:52:35;7.70;99.90
5705;DHT22;2877;48.238;11.160;2023-04-01T12:05:58;7.90;99.90
5705;DHT22;2877;48.238;11.160;2023-04-01T12:08:59;8.00;99.90
5705;DHT22;2877;48.238;11.160;2023-04-01T12:11:39;8.10;99.90
5705;DHT22;2877;48.238;11.160;2023-04-01T12:23:11;8.50;99.90
5705;DHT22;2877;48.238;11.160;2023-04-01T12:26:04;8.50;99.90
5705;DHT22;2877;48.238;11.160;2023-04-01T12:28:46;8.50;99.90
5705;DHT22;2877;48.238;11.160;2023-04-01T12:31:49;8.40;99.90
5705;DHT22;2877;48.238;11.160;2023-04-01T12:40:33;8.60;99.90
5705;DHT22;2877;48.238;11.160;2023-04-01T12:51:23;8.50;99.90
5705;DHT22;2877;48.238;11.160;2023-04-01T12:54:33;8.60;99.90
5705;DHT22;2877;48.238;11.160;2023-04-01T13:00:26;8.70;99.90
5705;DHT22;2877;48.238;11.160;2023-04-01T13:09:00;8.70;99.90
5705;DHT22;2877;48.238;11.160;2023-04-01T13:19:56;8.90;99.90
5705;DHT22;2877;48.238;11.160;2023-04-01T13:22:48;9.00;99.90
5705;DHT22;2877;48.238;11.160;2023-04-01T13:28:26;9.20;99.90
5705;DHT22;2877;48.238;11.160;2023-04-01T13:31:29;9.20;99.90
5705;DHT22;2877;48.238;11.160;2023-04-01T13:34:25;9.10;99.90
5705;DHT22;2877;48.238;11.160;2023-04-01T13:42:28;9.10;99.90
5705;DHT22;2877;48.238;11.160;2023-04-01T13:45:17;9.30;99.90
5705;DHT22;2877;48.238;11.160;2023-04-01T13:51:05;9.70;99.90
5705;DHT22;2877;48.238;11.160;2023-04-01T13:56:34;9.90;99.90
5705;DHT22;2877;48.238;11.160;2023-04-01T14:04:53;10.00;99.90
5705;DHT22;2877;48.238;11.160;2023-04-01T14:07:38;10.00;99.90
5705;DHT22;2877;48.238;11.160;2023-04-01T14:13:15;10.20;99.90
5705;DHT22;2877;48.238;11.160;2023-04-01T14:16:14;9.90;99.90
5705;DHT22;2877;48.238;11.160;2023-04-01T14:21:38;10.10;99.90
5705;DHT22;2877;48.238;11.160;2023-04-01T14:24:22;10.10;99.90
5705;DHT22;2877;48.238;11.160;2023-04-01T14:27:16;10.10;99.90
5705;DHT22;2877;48.238;11.160;2023-04-01T14:32:59;10.00;99.90
5705;DHT22;2877;48.238;11.160;2023-04-01T14:41:59;9.90;99.90
5705;DHT22;2877;48.238;11.160;2023-04-01T14:50:08;9.70;99.90
5705;DHT22;2877;48.238;11.160;2023-04-01T14:52:54;9.80;99.90
5705;DHT22;2877;48.238;11.160;2023-04-01T14:55:29;9.70;99.90
5705;DHT22;2877;48.238;11.160;2023-04-01T15:00:47;9.60;99.90
5705;DHT22;2877;48.238;11.160;2023-04-01T15:03:28;9.50;99.90
5705;DHT22;2877;48.238;11.160;2023-04-01T15:08:23;9.30;99.90
5705;DHT22;2877;48.238;11.160;2023-04-01T15:17:27;9.40;99.90
5705;DHT22;2877;48.238;11.160;2023-04-01T15:28:27;9.90;99.90
5705;DHT22;2877;48.238;11.160;2023-04-01T15:31:10;10.00;99.90
5705;DHT22;2877;48.238;11.160;2023-04-01T15:36:38;9.70;99.90
5705;DHT22;2877;48.238;11.160;2023-04-01T15:42:01;9.80;99.90
5705;DHT22;2877;48.238;11.160;2023-04-01T15:55:20;9.70;99.90
5705;DHT22;2877;48.238;11.160;2023-04-01T15:58:20;9.70;99.90
5705;DHT22;2877;48.238;11.160;2023-04-01T16:00:57;9.80;99.90
5705;DHT22;2877;48.238;11.160;2023-04-01T16:14:49;9.50;99.90
5705;DHT22;2877;48.238;11.160;2023-04-01T16:17:36;9.50;99.90
5705;DHT22;2877;48.238;11.160;2023-04-01T16:20:35;9.40;99.90
5705;DHT22;2877;48.238;11.160;2023-04-01T16:29:03;9.40;99.90
5705;DHT22;2877;48.238;11.160;2023-04-01T16:31:51;9.40;99.90
5705;DHT22;2877;48.238;11.160;2023-04-01T16:34:44;9.30;99.90
5705;DHT22;2877;48.238;11.160;2023-04-01T16:37:27;9.20;99.90
5705;DHT22;2877;48.238;11.160;2023-04-01T16:43:42;9.10;99.90
5705;DHT22;2877;48.238;11.160;2023-04-01T16:45:53;9.10;99.90
5705;DHT22;2877;48.238;11.160;2023-04-01T16:48:49;9.00;99.90
5705;DHT22;2877;48.238;11.160;2023-04-01T16:51:18;8.90;99.90
5705;DHT22;2877;48.238;11.160;2023-04-01T16:53:50;8.90;99.90
5705;DHT22;2877;48.238;11.160;2023-04-01T16:56:27;8.90;99.90
5705;DHT22;2877;48.238;11.160;2023-04-01T17:04:43;8.90;99.90
5705;DHT22;2877;48.238;11.160;2023-04-01T17:10:02;8.80;99.90
5705;DHT22;2877;48.238;11.160;2023-04-01T17:12:38;8.80;99.90
5705;DHT22;2877;48.238;11.160;2023-04-01T17:20:40;8.80;99.90
5705;DHT22;2877;48.238;11.160;2023-04-01T17:23:13;8.70;99.90
5705;DHT22;2877;48.238;11.160;2023-04-01T17:32:26;8.70;99.90
5705;DHT22;2877;48.238;11.160;2023-04-01T17:34:44;8.60;99.90
5705;DHT22;2877;48.238;11.160;2023-04-01T17:40:26;8.50;99.90
5705;DHT22;2877;48.238;11.160;2023-04-01T17:43:08;8.50;99.90
5705;DHT22;2877;48.238;11.160;2023-04-01T17:45:53;8.50;99.90
5705;DHT22;2877;48.238;11.160;2023-04-01T17:48:45;8.50;99.90
5705;DHT22;2877;48.238;11.160;2023-04-01T17:51:24;8.40;99.90
5705;DHT22;2877;48.238;11.160;2023-04-01T17:54:06;8.40;99.90
5705;DHT22;2877;48.238;11.160;2023-04-01T17:57:06;8.50;99.90
5705;DHT22;2877;48.238;11.160;2023-04-01T18:00:13;8.50;99.90
5705;DHT22;2877;48.238;11.160;2023-04-01T18:08:15;8.50;99.90
5705;DHT22;2877;48.238;11.160;2023-04-01T18:20:15;8.50;99.90
5705;DHT22;2877;48.238;11.160;2023-04-01T18:22:26;8.40;99.90
5705;DHT22;2877;48.238;11.160;2023-04-01T18:27:44;8.40;99.90
5705;DHT22;2877;48.238;11.160;2023-04-01T18:30:30;8.50;99.90
5705;DHT22;2877;48.238;11.160;2023-04-01T18:36:08;8.50;99.90
5705;DHT22;2877;48.238;11.160;2023-04-01T18:38:57;8.50;99.90
5705;DHT22;2877;48.238;11.160;2023-04-01T18:41:53;8.50;99.90
5705;DHT22;2877;48.238;11.160;2023-04-01T18:44:41;8.40;99.90
5705;DHT22;2877;48.238;11.160;2023-04-01T18:47:15;8.40;99.90
5705;DHT22;2877;48.238;11.160;2023-04-01T18:49:52;8.40;99.90
5705;DHT22;2877;48.238;11.160;2023-04-01T18:52:34;8.40;99.90
5705;DHT22;2877;48.238;11.160;2023-04-01T18:57:41;8.30;99.90
5705;DHT22;2877;48.238;11.160;2023-04-01T19:00:20;8.20;99.90
5705;DHT22;2877;48.238;11.160;2023-04-01T19:03:07;8.10;99.90
5705;DHT22;2877;48.238;11.160;2023-04-01T19:05:38;8.10;99.90
5705;DHT22;2877;48.238;11.160;2023-04-01T19:10:48;8.00;99.90
5705;DHT22;2877;48.238;11.160;2023-04-01T19:13:25;8.00;99.90
5705;DHT22;2877;48.238;11.160;2023-04-01T19:18:33;7.90;99.90
5705;DHT22;2877;48.238;11.160;2023-04-01T19:24:05;7.80;99.90
5705;DHT22;2877;48.238;11.160;2023-04-01T19:26:40;7.80;99.90
5705;DHT22;2877;48.238;11.160;2023-04-01T19:31:52;7.70;99.90
5705;DHT22;2877;48.238;11.160;2023-04-01T19:34:46;7.70;99.90
5705;DHT22;2877;48.238;11.160;2023-04-01T19:43:15;7.60;99.90
5705;DHT22;2877;48.238;11.160;2023-04-01T19:54:28;7.50;99.90
5705;DHT22;2877;48.238;11.160;2023-04-01T19:59:39;7.40;99.90
5705;DHT22;2877;48.238;11.160;2023-04-01T20:04:49;7.40;99.90
5705;DHT22;2877;48.238;11.160;2023-04-01T20:07:31;7.30;99.90
5705;DHT22;2877;48.238;11.160;2023-04-01T20:10:05;7.40;99.90
5705;DHT22;2877;48.238;11.160;2023-04-01T20:12:51;7.40;99.90
5705;DHT22;2877;48.238;11.160;2023-04-01T20:18:01;7.40;99.90
5705;DHT22;2877;48.238;11.160;2023-04-01T20:20:30;7.40;99.90
5705;DHT22;2877;48.238;11.160;2023-04-01T20:23:06;7.30;99.90
5705;DHT22;2877;48.238;11.160;2023-04-01T20:25:47;7.30;99.90
5705;DHT22;2877;48.238;11.160;2023-04-01T20:30:54;7.30;99.90
5705;DHT22;2877;48.238;11.160;2023-04-01T20:36:23;7.30;99.90
5705;DHT22;2877;48.238;11.160;2023-04-01T20:47:14;7.20;99.90
5705;DHT22;2877;48.238;11.160;2023-04-01T20:52:32;7.10;99.90
5705;DHT22;2877;48.238;11.160;2023-04-01T21:14:54;7.20;99.90
5705;DHT22;2877;48.238;11.160;2023-04-01T21:17:49;7.20;99.90
5705;DHT22;2877;48.238;11.160;2023-04-01T21:28:29;7.20;99.90
5705;DHT22;2877;48.238;11.160;2023-04-01T21:37:29;7.20;99.90
5705;DHT22;2877;48.238;11.160;2023-04-01T21:40:18;7.20;99.90
5705;DHT22;2877;48.238;11.160;2023-04-01T21:45:57;7.30;99.90
5705;DHT22;2877;48.238;11.160;2023-04-01T21:54:20;7.30;99.90
5705;DHT22;2877;48.238;11.160;2023-04-01T22:00:06;7.30;99.90
5705;DHT22;2877;48.238;11.160;2023-04-01T22:05:53;7.30;99.90
5705;DHT22;2877;48.238;11.160;2023-04-01T22:08:41;7.30;99.90
5705;DHT22;2877;48.238;11.160;2023-04-01T22:11:23;7.30;99.90
5705;DHT22;2877;48.238;11.160;2023-04-01T22:14:07;7.30;99.90
5705;DHT22;2877;48.238;11.160;2023-04-01T22:19:30;7.30;99.90
5705;DHT22;2877;48.238;11.160;2023-04-01T22:22:08;7.30;99.90
5705;DHT22;2877;48.238;11.160;2023-04-01T22:24:44;7.30;99.90
5705;DHT22;2877;48.238;11.160;2023-04-01T22:27:44;7.30;99.90
5705;DHT22;2877;48.238;11.160;2023-04-01T22:30:38;7.20;99.90
5705;DHT22;2877;48.238;11.160;2023-04-01T22:33:11;7.20;99.90
5705;DHT22;2877;48.238;11.160;2023-04-01T22:41:23;7.10;99.90
5705;DHT22;2877;48.238;11.160;2023-04-01T22:43:54;7.10;99.90
5705;DHT22;2877;48.238;11.160;2023-04-01T22:51:43;7.10;99.90
5705;DHT22;2877;48.238;11.160;2023-04-01T22:54:48;7.10;99.90
5705;DHT22;2877;48.238;11.160;2023-04-01T23:00:28;7.10;99.90
5705;DHT22;2877;48.238;11.160;2023-04-01T23:05:52;7.00;99.90
5705;DHT22;2877;48.238;11.160;2023-04-01T23:11:14;6.90;99.90
5705;DHT22;2877;48.238;11.160;2023-04-01T23:13:47;6.90;99.90
5705;DHT22;2877;48.238;11.160;2023-04-01T23:16:20;6.80;99.90
5705;DHT22;2877;48.238;11.160;2023-04-01T23:19:03;6.80;99.90
5705;DHT22;2877;48.238;11.160;2023-04-01T23:21:35;6.80;99.90
5705;DHT22;2877;48.238;11.160;2023-04-01T23:24:42;6.80;99.90
5705;DHT22;2877;48.238;11.160;2023-04-01T23:27:30;6.80;99.90
5705;DHT22;2877;48.238;11.160;2023-04-01T23:29:57;6.90;99.90
5705;DHT22;2877;48.238;11.160;2023-04-01T23:32:24;6.90;99.90
5705;DHT22;2877;48.238;11.160;2023-04-01T23:34:53;7.00;99.90
5705;DHT22;2877;48.238;11.160;2023-04-01T23:37:21;7.00;99.90
5705;DHT22;2877;48.238;11.160;2023-04-01T23:39:56;7.10;99.90
5705;DHT22;2877;48.238;11.160;2023-04-01T23:42:31;7.10;99.90
5705;DHT22;2877;48.238;11.160;2023-04-01T23:45:05;7.10;99.90
5705;DHT22;2877;48.238;11.160;2023-04-01T23:47:38;7.10;99.90
5705;DHT22;2877;48.238;11.160;2023-04-01T23:50:24;7.10;99.90
5705;DHT22;2877;48.238;11.160;2023-04-01T23:53:04;7.00;99.90
5705;DHT22;2877;48.238;11.160;2023-04-01T23:55:34;7.00;99.90
